Time;durP1;ratioP1;P1;durP2;ratioP2;P2;SDS_P1;SDS_P2;PMS_P1;PMS_P2;Temp;Humidity;BMP_temperature;BMP_pressure;BME280_temperature;BME280_humidity;BME280_pressure;Samples;Min_cycle;Max_cycle;Signal;HPM_P1;HPM_P2
2022/12/25 00:02:23;;;;;;;;;;;10.20;99.90;;;;;;5073419;28;20024;-74
2022/12/25 00:04:50;;;;;;;;;;;10.20;99.90;;;;;;5076502;28;19932;-74
2022/12/25 00:07:17;;;;;;;;;;;10.20;99.90;;;;;;5074976;28;19928;-74
2022/12/25 00:09:43;;;;;;;;;;;10.20;99.90;;;;;;5074780;28;19986;-74
2022/12/25 00:12:11;;;;;;;;;;;10.20;99.90;;;;;;5074337;28;20597;-75
2022/12/25 00:14:38;;;;;;;;;;;10.20;99.90;;;;;;5072911;28;19944;-74
2022/12/25 00:17:05;;;;;;;;;;;10.20;99.90;;;;;;5076458;28;19924;-74
2022/12/25 00:19:31;;;;;;;;;;;10.20;99.90;;;;;;5073667;28;20036;-75
2022/12/25 00:21:58;;;;;;;;;;;10.10;99.90;;;;;;5076483;28;20027;-74
2022/12/25 00:24:25;;;;;;;;;;;10.10;99.90;;;;;;5076273;28;20302;-75
2022/12/25 00:26:52;;;;;;;;;;;10.10;99.90;;;;;;5075162;28;19981;-74
2022/12/25 00:29:20;;;;;;;;;;;10.10;99.90;;;;;;5078894;28;20024;-75
2022/12/25 00:31:47;;;;;;;;;;;10.10;99.90;;;;;;5076160;28;19932;-74
2022/12/25 00:34:13;;;;;;;;;;;10.10;99.90;;;;;;5075121;28;19938;-75
2022/12/25 00:36:40;;;;;;;;;;;10.10;99.90;;;;;;5075314;28;20436;-75
2022/12/25 00:39:07;;;;;;;;;;;10.10;99.90;;;;;;5074163;28;20015;-75
2022/12/25 00:44:17;;;;;;;;;;;10.10;99.90;;;;;;5075773;28;19931;-75
2022/12/25 00:46:45;;;;;;;;;;;10.10;99.90;;;;;;5080905;28;19924;-75
2022/12/25 00:49:12;;;;;;;;;;;10.00;99.90;;;;;;5081126;28;20276;-76
2022/12/25 00:51:39;;;;;;;;;;;10.00;99.90;;;;;;5082766;28;19967;-76
2022/12/25 00:54:06;;;;;;;;;;;10.10;99.90;;;;;;5080837;28;19951;-75
2022/12/25 00:56:33;;;;;;;;;;;10.00;99.90;;;;;;5078181;28;20192;-76
2022/12/25 00:58:59;;;;;;;;;;;10.00;99.90;;;;;;5080438;28;20010;-77
2022/12/25 01:01:26;;;;;;;;;;;10.00;99.90;;;;;;5077664;28;19932;-76
2022/12/25 01:03:54;;;;;;;;;;;10.00;99.90;;;;;;5078627;28;20664;-76
2022/12/25 01:06:21;;;;;;;;;;;10.00;99.90;;;;;;5080666;28;20371;-75
2022/12/25 01:11:28;;;;;;;;;;;9.90;99.90;;;;;;5078810;28;20418;-75
2022/12/25 01:13:55;;;;;;;;;;;9.90;99.90;;;;;;5076726;28;20390;-75
2022/12/25 01:16:22;;;;;;;;;;;10.00;99.90;;;;;;5080884;28;19933;-73
2022/12/25 01:18:49;;;;;;;;;;;9.90;99.90;;;;;;5083067;28;19928;-76
2022/12/25 01:21:18;;;;;;;;;;;10.00;99.90;;;;;;5078853;28;19924;-76
2022/12/25 01:23:45;;;;;;;;;;;9.90;99.90;;;;;;5079060;28;19931;-75
2022/12/25 01:26:12;;;;;;;;;;;9.90;99.90;;;;;;5076831;28;20393;-74
2022/12/25 01:28:40;;;;;;;;;;;9.90;99.90;;;;;;5078617;28;19946;-74
2022/12/25 01:31:09;;;;;;;;;;;9.90;99.90;;;;;;5078105;28;19932;-75
2022/12/25 01:33:35;;;;;;;;;;;9.90;99.90;;;;;;5076686;28;20576;-75
2022/12/25 01:36:02;;;;;;;;;;;9.90;99.90;;;;;;5076184;28;19939;-76
2022/12/25 01:38:30;;;;;;;;;;;9.90;99.90;;;;;;5079197;28;20035;-75
2022/12/25 01:40:57;;;;;;;;;;;9.90;99.90;;;;;;5078535;28;19938;-76
2022/12/25 01:43:24;;;;;;;;;;;9.90;99.90;;;;;;5077754;28;20019;-77
2022/12/25 01:45:52;;;;;;;;;;;9.90;99.90;;;;;;5076211;28;20378;-76
2022/12/25 01:48:20;;;;;;;;;;;9.90;99.90;;;;;;5077169;28;19924;-74
2022/12/25 01:50:48;;;;;;;;;;;9.90;99.90;;;;;;5078815;28;20325;-74
2022/12/25 01:53:15;;;;;;;;;;;9.90;99.90;;;;;;5079020;28;19928;-75
2022/12/25 01:55:44;;;;;;;;;;;9.90;99.90;;;;;;5077276;28;19924;-75
2022/12/25 01:58:10;;;;;;;;;;;9.90;99.90;;;;;;5077690;28;20604;-75
2022/12/25 02:00:37;;;;;;;;;;;9.90;99.90;;;;;;5078818;28;20399;-75
2022/12/25 02:03:06;;;;;;;;;;;9.90;99.90;;;;;;5078418;28;19928;-76
2022/12/25 02:05:34;;;;;;;;;;;9.90;99.90;;;;;;5077804;28;20222;-75
2022/12/25 02:08:09;;;;;;;;;;;9.90;99.90;;;;;;5082196;28;20015;-74
2022/12/25 02:10:37;;;;;;;;;;;9.90;99.90;;;;;;5086319;28;19934;-76
2022/12/25 02:13:06;;;;;;;;;;;9.90;99.90;;;;;;5078572;28;20302;-74
2022/12/25 02:15:37;;;;;;;;;;;9.90;99.90;;;;;;5078454;28;20539;-76
2022/12/25 02:18:08;;;;;;;;;;;9.90;99.90;;;;;;5080312;28;20341;-75
2022/12/25 02:20:50;;;;;;;;;;;9.90;99.90;;;;;;5078646;28;19927;-74
2022/12/25 02:23:29;;;;;;;;;;;9.90;99.90;;;;;;5074280;28;20058;-75
2022/12/25 02:26:03;;;;;;;;;;;9.90;99.90;;;;;;5076729;28;19931;-75
2022/12/25 02:28:35;;;;;;;;;;;9.90;99.90;;;;;;5079121;28;19932;-75
2022/12/25 02:31:07;;;;;;;;;;;9.90;99.90;;;;;;5077585;28;20287;-76
2022/12/25 02:36:27;;;;;;;;;;;9.90;99.90;;;;;;5077310;28;20420;-74
2022/12/25 02:41:41;;;;;;;;;;;9.90;99.90;;;;;;5074863;28;20315;-74
2022/12/25 03:11:29;;;;;;;;;;;9.90;99.90;;;;;;5071429;28;19943;-74
2022/12/25 03:11:47;;;;;;;;;;;10.00;99.90;;;;;;5074481;28;19932;-74
2022/12/25 03:16:58;;;;;;;;;;;10.00;99.90;;;;;;5052107;28;20387;-74
2022/12/25 03:27:42;;;;;;;;;;;10.00;99.90;;;;;;5074293;28;19933;-73
2022/12/25 03:33:04;;;;;;;;;;;10.00;99.90;;;;;;5075156;28;19940;-73
2022/12/25 03:35:42;;;;;;;;;;;10.00;99.90;;;;;;5076316;28;19929;-72
2022/12/25 04:36:33;;;;;;;;;;;10.00;99.90;;;;;;5066559;28;19939;-73
2022/12/25 04:39:01;;;;;;;;;;;10.00;99.90;;;;;;5072884;28;20384;-74
2022/12/25 04:41:28;;;;;;;;;;;10.00;99.90;;;;;;5072483;28;19931;-73
2022/12/25 04:43:54;;;;;;;;;;;10.00;99.90;;;;;;5074743;28;19932;-72
2022/12/25 04:46:21;;;;;;;;;;;10.00;99.90;;;;;;5073019;28;19932;-73
2022/12/25 04:48:48;;;;;;;;;;;10.00;99.90;;;;;;5075153;28;20050;-75
2022/12/25 04:51:15;;;;;;;;;;;10.00;99.90;;;;;;5074699;28;19939;-75
2022/12/25 04:53:43;;;;;;;;;;;10.00;99.90;;;;;;5074419;28;19932;-73
2022/12/25 04:56:11;;;;;;;;;;;9.90;99.90;;;;;;5073852;28;19947;-73
2022/12/25 04:58:38;;;;;;;;;;;9.90;99.90;;;;;;5074854;28;19925;-74
2022/12/25 05:01:04;;;;;;;;;;;9.90;99.90;;;;;;5072698;28;20031;-75
2022/12/25 05:03:31;;;;;;;;;;;9.90;99.90;;;;;;5074512;28;20044;-74
2022/12/25 05:05:58;;;;;;;;;;;9.90;99.90;;;;;;5076655;28;19930;-74
2022/12/25 05:08:25;;;;;;;;;;;9.90;99.90;;;;;;5073641;28;19928;-73
2022/12/25 05:10:52;;;;;;;;;;;9.90;99.90;;;;;;5074992;28;19924;-74
2022/12/25 05:13:20;;;;;;;;;;;9.90;99.90;;;;;;5072482;28;19938;-74
2022/12/25 05:15:46;;;;;;;;;;;9.80;99.90;;;;;;5071576;28;19932;-74
2022/12/25 05:18:13;;;;;;;;;;;9.90;99.90;;;;;;5074290;28;20050;-75
2022/12/25 05:20:40;;;;;;;;;;;9.80;99.90;;;;;;5072519;28;19932;-73
2022/12/25 05:23:06;;;;;;;;;;;9.80;99.90;;;;;;5073697;28;19928;-74
2022/12/25 05:25:33;;;;;;;;;;;9.90;99.90;;;;;;5071601;28;19935;-73
2022/12/25 05:28:00;;;;;;;;;;;9.90;99.90;;;;;;5072900;28;19928;-74
2022/12/25 05:30:28;;;;;;;;;;;9.80;99.90;;;;;;5072584;28;20294;-74
2022/12/25 05:32:54;;;;;;;;;;;9.80;99.90;;;;;;5076897;28;19939;-73
2022/12/25 05:35:21;;;;;;;;;;;9.80;99.90;;;;;;5075994;28;19930;-73
2022/12/25 05:37:48;;;;;;;;;;;9.80;99.90;;;;;;5077539;28;19975;-74
2022/12/25 05:40:14;;;;;;;;;;;9.90;99.90;;;;;;5077067;28;19927;-75
2022/12/25 05:42:41;;;;;;;;;;;9.80;99.90;;;;;;5077171;28;19931;-75
2022/12/25 05:45:08;;;;;;;;;;;9.80;99.90;;;;;;5077869;28;19932;-74
2022/12/25 05:47:36;;;;;;;;;;;9.80;99.90;;;;;;5079527;28;19938;-74
2022/12/25 05:50:03;;;;;;;;;;;9.80;99.90;;;;;;5076271;28;19932;-74
2022/12/25 05:52:30;;;;;;;;;;;9.80;99.90;;;;;;5077367;28;19932;-74
2022/12/25 05:54:57;;;;;;;;;;;9.80;99.90;;;;;;5074828;28;19941;-74
2022/12/25 05:57:24;;;;;;;;;;;9.80;99.90;;;;;;5076951;28;19943;-75
2022/12/25 05:59:51;;;;;;;;;;;9.80;99.90;;;;;;5077134;28;20416;-74
2022/12/25 06:02:17;;;;;;;;;;;9.80;99.90;;;;;;5077701;28;19932;-74
2022/12/25 06:04:45;;;;;;;;;;;9.80;99.90;;;;;;5077306;28;20031;-75
2022/12/25 06:07:12;;;;;;;;;;;9.80;99.90;;;;;;5077206;28;20023;-75
2022/12/25 06:09:39;;;;;;;;;;;9.80;99.90;;;;;;5076812;28;19934;-75
2022/12/25 06:12:06;;;;;;;;;;;9.80;99.90;;;;;;5076404;28;19933;-75
2022/12/25 06:14:32;;;;;;;;;;;9.80;99.90;;;;;;5075973;28;19924;-75
2022/12/25 06:16:59;;;;;;;;;;;9.80;99.90;;;;;;5076461;28;19956;-75
2022/12/25 06:19:26;;;;;;;;;;;9.80;99.90;;;;;;5075254;28;20017;-75
2022/12/25 06:21:54;;;;;;;;;;;9.80;99.90;;;;;;5090428;28;19924;-75
2022/12/25 06:24:20;;;;;;;;;;;9.80;99.90;;;;;;5094317;28;20387;-75
2022/12/25 06:26:47;;;;;;;;;;;9.80;99.90;;;;;;5092565;28;19932;-75
2022/12/25 06:29:14;;;;;;;;;;;9.80;99.90;;;;;;5092871;28;20008;-76
2022/12/25 06:31:41;;;;;;;;;;;9.90;99.90;;;;;;5092840;28;19924;-76
2022/12/25 06:34:07;;;;;;;;;;;9.90;99.90;;;;;;5088994;28;19924;-75
2022/12/25 06:36:37;;;;;;;;;;;9.90;99.90;;;;;;5076841;28;20032;-75
2022/12/25 06:39:05;;;;;;;;;;;9.90;99.90;;;;;;5075495;28;19955;-75
2022/12/25 06:41:31;;;;;;;;;;;9.90;99.90;;;;;;5076809;28;20318;-75
2022/12/25 06:43:59;;;;;;;;;;;9.90;99.90;;;;;;5076455;28;19934;-74
2022/12/25 06:46:27;;;;;;;;;;;9.80;99.90;;;;;;5075329;28;19932;-73
2022/12/25 06:48:54;;;;;;;;;;;9.80;99.90;;;;;;5076457;28;19924;-73
2022/12/25 06:51:21;;;;;;;;;;;9.80;99.90;;;;;;5075107;28;19934;-73
2022/12/25 06:53:48;;;;;;;;;;;9.80;99.90;;;;;;5076904;28;19963;-74
2022/12/25 06:56:18;;;;;;;;;;;9.80;99.90;;;;;;5076487;28;19938;-74
2022/12/25 06:58:46;;;;;;;;;;;9.80;99.90;;;;;;5076639;28;20353;-74
2022/12/25 07:01:16;;;;;;;;;;;9.70;99.90;;;;;;5076319;28;19928;-75
2022/12/25 07:03:43;;;;;;;;;;;9.70;99.90;;;;;;5073412;28;19932;-75
2022/12/25 07:06:10;;;;;;;;;;;9.70;99.90;;;;;;5075132;28;20667;-75
2022/12/25 07:08:37;;;;;;;;;;;9.70;99.90;;;;;;5075489;28;20432;-76
2022/12/25 07:11:04;;;;;;;;;;;9.70;99.90;;;;;;5078259;28;21584;-75
2022/12/25 07:13:32;;;;;;;;;;;9.70;99.90;;;;;;5077436;28;19934;-74
2022/12/25 07:15:59;;;;;;;;;;;9.70;99.90;;;;;;5076733;28;20387;-74
2022/12/25 07:18:26;;;;;;;;;;;9.70;99.90;;;;;;5078074;28;19932;-75
2022/12/25 07:20:54;;;;;;;;;;;9.70;99.90;;;;;;5078140;28;19932;-75
2022/12/25 07:23:21;;;;;;;;;;;9.70;99.90;;;;;;5077489;28;19939;-74
2022/12/25 07:25:53;;;;;;;;;;;9.70;99.90;;;;;;5075972;28;19934;-74
2022/12/25 07:28:19;;;;;;;;;;;9.70;99.90;;;;;;5077767;28;19967;-74
2022/12/25 07:30:48;;;;;;;;;;;9.70;99.90;;;;;;5076117;28;20974;-75
2022/12/25 07:33:15;;;;;;;;;;;9.70;99.90;;;;;;5076664;28;20006;-75
2022/12/25 07:35:41;;;;;;;;;;;9.80;99.90;;;;;;5077572;28;19932;-76
2022/12/25 07:38:08;;;;;;;;;;;9.80;99.90;;;;;;5080167;28;19935;-75
2022/12/25 07:40:35;;;;;;;;;;;9.80;99.90;;;;;;5075969;28;20318;-74
2022/12/25 07:43:02;;;;;;;;;;;9.80;99.90;;;;;;5074584;28;20518;-75
2022/12/25 07:45:28;;;;;;;;;;;9.80;99.90;;;;;;5076144;28;19934;-74
2022/12/25 07:47:56;;;;;;;;;;;9.80;99.90;;;;;;5078457;28;19939;-75
2022/12/25 07:50:23;;;;;;;;;;;9.80;99.90;;;;;;5079255;28;19935;-76
2022/12/25 07:52:49;;;;;;;;;;;9.80;99.90;;;;;;5077292;28;20015;-76
2022/12/25 07:55:16;;;;;;;;;;;9.80;99.90;;;;;;5076018;28;20019;-73
2022/12/25 07:57:43;;;;;;;;;;;9.80;99.90;;;;;;5076999;28;19924;-79
2022/12/25 08:00:10;;;;;;;;;;;9.80;99.90;;;;;;5074758;28;19975;-74
2022/12/25 08:02:37;;;;;;;;;;;9.70;99.90;;;;;;5078534;28;19986;-74
2022/12/25 08:05:05;;;;;;;;;;;9.70;99.90;;;;;;5077866;28;19935;-75
2022/12/25 08:07:32;;;;;;;;;;;9.70;99.90;;;;;;5077196;28;20050;-75
2022/12/25 08:09:59;;;;;;;;;;;9.70;99.90;;;;;;5079089;28;19973;-76
2022/12/25 08:12:25;;;;;;;;;;;9.70;99.90;;;;;;5078534;28;19935;-76
2022/12/25 08:14:53;;;;;;;;;;;9.70;99.90;;;;;;5077304;28;19928;-75
2022/12/25 08:17:20;;;;;;;;;;;9.70;99.90;;;;;;5077719;28;20307;-75
2022/12/25 08:19:47;;;;;;;;;;;9.70;99.90;;;;;;5074708;28;20301;-75
2022/12/25 08:22:15;;;;;;;;;;;9.70;99.90;;;;;;5079753;28;19955;-74
2022/12/25 08:24:41;;;;;;;;;;;9.70;99.90;;;;;;5077191;28;19932;-74
2022/12/25 08:27:08;;;;;;;;;;;9.70;99.90;;;;;;5078065;28;19924;-73
2022/12/25 08:29:35;;;;;;;;;;;9.70;99.90;;;;;;5077181;28;19928;-74
2022/12/25 08:32:02;;;;;;;;;;;9.70;99.90;;;;;;5078140;28;19924;-74
2022/12/25 08:34:28;;;;;;;;;;;9.70;99.90;;;;;;5081512;28;19934;-74
2022/12/25 08:36:55;;;;;;;;;;;9.70;99.90;;;;;;5090570;28;19963;-75
2022/12/25 08:39:23;;;;;;;;;;;9.70;99.90;;;;;;5075765;28;19969;-76
2022/12/25 08:41:50;;;;;;;;;;;9.70;99.90;;;;;;5071704;28;20825;-75
2022/12/25 08:44:16;;;;;;;;;;;9.70;99.90;;;;;;5072287;28;20038;-76
2022/12/25 08:46:43;;;;;;;;;;;9.70;99.90;;;;;;5074412;28;19932;-75
2022/12/25 08:49:10;;;;;;;;;;;9.70;99.90;;;;;;5074158;28;20371;-74
2022/12/25 08:51:37;;;;;;;;;;;9.70;99.90;;;;;;5073662;28;19976;-74
2022/12/25 08:54:03;;;;;;;;;;;9.70;99.90;;;;;;5075561;28;20390;-75
2022/12/25 08:56:32;;;;;;;;;;;9.70;99.90;;;;;;5073200;28;20009;-74
2022/12/25 08:58:58;;;;;;;;;;;9.70;99.90;;;;;;5073067;28;19928;-76
2022/12/25 09:01:25;;;;;;;;;;;9.80;99.90;;;;;;5075546;28;19938;-73
2022/12/25 09:03:51;;;;;;;;;;;9.90;99.90;;;;;;5075744;28;20412;-75
2022/12/25 09:06:18;;;;;;;;;;;9.90;99.90;;;;;;5071373;28;19934;-74
2022/12/25 09:08:45;;;;;;;;;;;9.80;99.90;;;;;;5078374;28;20685;-74
2022/12/25 09:11:13;;;;;;;;;;;9.80;99.90;;;;;;5080020;28;19934;-75
2022/12/25 09:13:41;;;;;;;;;;;9.90;99.90;;;;;;5073112;28;20406;-74
2022/12/25 09:16:09;;;;;;;;;;;9.90;99.90;;;;;;5077290;28;19928;-74
2022/12/25 09:18:36;;;;;;;;;;;9.90;99.90;;;;;;5081407;28;20314;-74
2022/12/25 09:21:04;;;;;;;;;;;9.80;99.90;;;;;;5076093;28;19932;-75
2022/12/25 09:23:31;;;;;;;;;;;9.80;99.90;;;;;;5079451;28;19963;-74
2022/12/25 09:25:58;;;;;;;;;;;9.70;99.90;;;;;;5076438;28;20018;-74
2022/12/25 09:28:28;;;;;;;;;;;9.70;99.90;;;;;;5079140;28;19928;-75
2022/12/25 09:30:57;;;;;;;;;;;9.80;99.90;;;;;;5075947;28;19924;-75
2022/12/25 09:33:24;;;;;;;;;;;9.70;99.90;;;;;;5077822;28;20402;-74
2022/12/25 09:35:54;;;;;;;;;;;9.70;99.90;;;;;;5077235;28;20015;-75
2022/12/25 09:38:20;;;;;;;;;;;9.70;99.90;;;;;;5075788;28;19993;-74
2022/12/25 09:40:47;;;;;;;;;;;9.80;99.90;;;;;;5074536;28;19938;-75
2022/12/25 09:43:16;;;;;;;;;;;9.80;99.90;;;;;;5075833;28;19932;-75
2022/12/25 09:45:43;;;;;;;;;;;9.90;99.90;;;;;;5077046;28;20005;-74
2022/12/25 09:48:13;;;;;;;;;;;9.90;99.90;;;;;;5077931;28;19924;-74
2022/12/25 09:50:43;;;;;;;;;;;10.00;99.90;;;;;;5076058;28;20398;-74
2022/12/25 09:53:15;;;;;;;;;;;10.00;99.90;;;;;;5071587;28;19939;-74
2022/12/25 09:55:45;;;;;;;;;;;9.90;99.90;;;;;;5076325;28;20022;-74
2022/12/25 09:58:12;;;;;;;;;;;9.90;99.90;;;;;;5078003;28;19942;-75
2022/12/25 10:00:41;;;;;;;;;;;9.90;99.90;;;;;;5073300;28;20123;-74
2022/12/25 10:03:22;;;;;;;;;;;9.80;99.90;;;;;;5074546;28;19974;-74
2022/12/25 10:06:08;;;;;;;;;;;9.70;99.90;;;;;;5075004;28;19936;-75
2022/12/25 10:08:42;;;;;;;;;;;9.70;99.90;;;;;;5080031;28;19932;-73
2022/12/25 10:11:15;;;;;;;;;;;9.70;99.90;;;;;;5078866;28;19939;-74
2022/12/25 10:13:49;;;;;;;;;;;9.80;99.90;;;;;;5079319;28;20394;-73
2022/12/25 10:16:20;;;;;;;;;;;9.70;99.90;;;;;;5082559;28;19931;-74
2022/12/25 10:18:55;;;;;;;;;;;9.70;99.90;;;;;;5080708;28;19938;-77
2022/12/25 10:21:22;;;;;;;;;;;9.70;99.90;;;;;;5079967;28;20403;-76
2022/12/25 10:23:52;;;;;;;;;;;9.80;99.90;;;;;;5076668;28;19939;-74
2022/12/25 10:26:19;;;;;;;;;;;9.80;99.90;;;;;;5077492;28;19928;-74
2022/12/25 10:28:47;;;;;;;;;;;9.90;99.90;;;;;;5075971;28;20395;-74
2022/12/25 10:31:18;;;;;;;;;;;9.90;99.90;;;;;;5076471;28;19928;-75
2022/12/25 10:33:44;;;;;;;;;;;9.90;99.90;;;;;;5077100;28;19993;-74
2022/12/25 10:36:13;;;;;;;;;;;10.00;99.90;;;;;;5080139;28;19924;-74
2022/12/25 10:38:39;;;;;;;;;;;9.90;99.90;;;;;;5078694;28;20370;-75
2022/12/25 10:41:13;;;;;;;;;;;9.90;99.90;;;;;;5079333;28;21679;-73
2022/12/25 10:43:43;;;;;;;;;;;9.90;99.90;;;;;;5077408;28;19932;-73
2022/12/25 10:46:11;;;;;;;;;;;9.90;99.90;;;;;;5077385;28;20633;-73
2022/12/25 10:48:39;;;;;;;;;;;9.90;99.90;;;;;;5078932;28;19928;-73
2022/12/25 10:51:06;;;;;;;;;;;9.80;99.90;;;;;;5077996;28;19928;-74
2022/12/25 10:53:39;;;;;;;;;;;9.80;99.90;;;;;;5080148;28;20113;-73
2022/12/25 10:56:06;;;;;;;;;;;9.80;99.90;;;;;;5079715;28;19932;-73
2022/12/25 10:58:33;;;;;;;;;;;9.80;99.90;;;;;;5079297;28;20281;-74
2022/12/25 11:01:02;;;;;;;;;;;9.80;99.90;;;;;;5076875;28;20390;-74
2022/12/25 11:03:30;;;;;;;;;;;9.80;99.90;;;;;;5080916;28;20010;-73
2022/12/25 11:05:58;;;;;;;;;;;9.80;99.90;;;;;;5078458;28;20019;-74
2022/12/25 11:08:26;;;;;;;;;;;9.70;99.90;;;;;;5081084;28;19924;-74
2022/12/25 11:10:57;;;;;;;;;;;9.70;99.90;;;;;;5085518;28;19932;-74
2022/12/25 11:13:25;;;;;;;;;;;9.70;99.90;;;;;;5079353;28;19932;-74
2022/12/25 11:16:03;;;;;;;;;;;9.70;99.90;;;;;;5079324;28;19932;-74
2022/12/25 11:18:33;;;;;;;;;;;9.70;99.90;;;;;;5078261;28;19967;-75
2022/12/25 11:21:12;;;;;;;;;;;9.80;99.90;;;;;;5082603;28;19924;-74
2022/12/25 11:23:43;;;;;;;;;;;9.80;99.90;;;;;;5077786;28;19936;-74
2022/12/25 11:26:11;;;;;;;;;;;9.90;99.90;;;;;;5076763;28;19928;-74
2022/12/25 11:28:39;;;;;;;;;;;10.00;99.90;;;;;;5077566;28;20022;-80
2022/12/25 11:31:07;;;;;;;;;;;9.90;99.90;;;;;;5076839;28;20019;-79
2022/12/25 11:33:35;;;;;;;;;;;10.00;99.90;;;;;;5078136;28;19950;-79
2022/12/25 11:36:08;;;;;;;;;;;9.90;99.90;;;;;;5078413;28;20006;-78
2022/12/25 11:38:35;;;;;;;;;;;9.80;99.90;;;;;;5080077;28;19939;-79
2022/12/25 11:41:03;;;;;;;;;;;9.80;99.90;;;;;;5077943;28;20026;-79
2022/12/25 11:43:33;;;;;;;;;;;9.80;99.90;;;;;;5078142;28;19935;-78
2022/12/25 11:46:11;;;;;;;;;;;9.80;99.90;;;;;;5078939;28;20287;-79
2022/12/25 11:48:41;;;;;;;;;;;9.90;99.90;;;;;;5079816;28;19993;-79
2022/12/25 11:51:12;;;;;;;;;;;9.90;99.90;;;;;;5078439;28;20472;-79
2022/12/25 11:53:43;;;;;;;;;;;9.90;99.90;;;;;;5092718;28;20521;-78
2022/12/25 11:56:11;;;;;;;;;;;10.00;99.90;;;;;;5094670;28;19963;-78
2022/12/25 11:58:41;;;;;;;;;;;10.00;99.90;;;;;;5082015;28;19928;-78
2022/12/25 12:01:14;;;;;;;;;;;9.90;99.90;;;;;;5078058;28;19982;-79
2022/12/25 12:03:42;;;;;;;;;;;10.00;99.90;;;;;;5077256;28;20140;-77
2022/12/25 12:06:15;;;;;;;;;;;10.00;99.90;;;;;;5078070;28;19924;-77
2022/12/25 12:08:42;;;;;;;;;;;10.00;99.90;;;;;;5078331;28;21429;-78
2022/12/25 12:11:17;;;;;;;;;;;10.00;99.90;;;;;;5079487;28;19981;-82
2022/12/25 12:13:51;;;;;;;;;;;10.00;99.90;;;;;;5077464;28;19981;-82
2022/12/25 12:16:17;;;;;;;;;;;10.00;99.90;;;;;;5075483;28;19938;-80
2022/12/25 12:18:44;;;;;;;;;;;9.90;99.90;;;;;;5077728;28;20014;-80
2022/12/25 12:21:20;;;;;;;;;;;10.00;99.90;;;;;;5076698;28;19939;-79
2022/12/25 12:23:49;;;;;;;;;;;10.10;99.90;;;;;;5077060;28;20224;-79
2022/12/25 12:26:20;;;;;;;;;;;10.10;99.90;;;;;;5076879;28;20387;-79
2022/12/25 12:28:48;;;;;;;;;;;10.10;99.90;;;;;;5077694;28;19934;-80
2022/12/25 12:31:41;;;;;;;;;;;10.10;99.90;;;;;;5095716;27;19924;-80
2022/12/25 12:34:16;;;;;;;;;;;10.10;99.90;;;;;;5094947;28;19932;-79
2022/12/25 12:36:42;;;;;;;;;;;10.10;99.90;;;;;;5092912;28;20291;-79
2022/12/25 12:39:20;;;;;;;;;;;10.10;99.90;;;;;;5093807;28;19932;-80
2022/12/25 12:41:48;;;;;;;;;;;10.20;99.90;;;;;;5093883;28;19928;-80
2022/12/25 12:44:16;;;;;;;;;;;10.20;99.90;;;;;;5090683;28;20399;-79
2022/12/25 12:46:52;;;;;;;;;;;10.20;99.90;;;;;;5093059;28;19931;-79
2022/12/25 12:49:21;;;;;;;;;;;10.20;99.90;;;;;;5094185;28;20546;-79
2022/12/25 12:51:48;;;;;;;;;;;10.20;99.90;;;;;;5090462;28;19939;-79
2022/12/25 12:54:19;;;;;;;;;;;10.10;99.90;;;;;;5088103;28;19932;-79
2022/12/25 12:56:56;;;;;;;;;;;10.10;99.90;;;;;;5090861;28;19932;-79
2022/12/25 12:59:22;;;;;;;;;;;10.10;99.90;;;;;;5090089;28;19927;-78
2022/12/25 13:01:55;;;;;;;;;;;10.10;99.90;;;;;;5092967;28;20367;-78
2022/12/25 13:04:37;;;;;;;;;;;10.10;99.90;;;;;;5089468;28;19928;-77
2022/12/25 13:07:10;;;;;;;;;;;10.10;99.90;;;;;;5090069;28;19928;-79
2022/12/25 13:09:45;;;;;;;;;;;10.10;99.90;;;;;;5095324;28;19932;-80
2022/12/25 13:12:13;;;;;;;;;;;10.10;99.90;;;;;;5090369;28;19930;-79
2022/12/25 13:14:44;;;;;;;;;;;10.10;99.90;;;;;;5090766;28;19978;-79
2022/12/25 13:17:15;;;;;;;;;;;10.10;99.90;;;;;;5092321;28;20045;-80
2022/12/25 13:19:42;;;;;;;;;;;10.10;99.90;;;;;;5092948;28;19958;-75
2022/12/25 13:22:23;;;;;;;;;;;10.00;99.90;;;;;;5091982;28;19924;-79
2022/12/25 13:24:55;;;;;;;;;;;10.00;99.90;;;;;;5094153;28;19932;-80
2022/12/25 13:27:22;;;;;;;;;;;10.00;99.90;;;;;;5093940;28;19932;-81
2022/12/25 13:29:49;;;;;;;;;;;10.00;99.90;;;;;;5095911;28;20298;-80
2022/12/25 13:32:21;;;;;;;;;;;10.00;99.90;;;;;;5112358;28;19975;-80
2022/12/25 13:34:49;;;;;;;;;;;10.10;99.90;;;;;;5114175;28;20000;-80
2022/12/25 13:37:19;;;;;;;;;;;10.00;99.90;;;;;;5115287;28;19930;-81
2022/12/25 13:39:48;;;;;;;;;;;10.00;99.90;;;;;;5114743;28;20394;-79
2022/12/25 13:42:15;;;;;;;;;;;10.00;99.90;;;;;;5102784;28;19935;-81
2022/12/25 13:44:45;;;;;;;;;;;10.00;99.90;;;;;;5103187;28;19974;-79
2022/12/25 13:47:22;;;;;;;;;;;10.00;99.90;;;;;;5099108;28;19928;-81
2022/12/25 13:49:49;;;;;;;;;;;10.00;99.90;;;;;;5097905;28;19970;-81
2022/12/25 13:52:17;;;;;;;;;;;10.00;99.90;;;;;;5095914;28;20383;-80
2022/12/25 13:54:57;;;;;;;;;;;10.00;99.90;;;;;;5096775;28;20290;-80
2022/12/25 13:57:25;;;;;;;;;;;10.00;99.90;;;;;;5097478;28;19924;-81
2022/12/25 13:59:52;;;;;;;;;;;10.00;99.90;;;;;;5094997;28;19928;-80
2022/12/25 14:02:23;;;;;;;;;;;10.00;99.90;;;;;;5093963;28;19927;-79
2022/12/25 14:04:50;;;;;;;;;;;10.00;99.90;;;;;;5095031;28;19938;-81
2022/12/25 14:07:18;;;;;;;;;;;10.00;99.90;;;;;;5100295;28;19938;-81
2022/12/25 14:09:45;;;;;;;;;;;10.00;99.90;;;;;;5097621;28;20022;-81
2022/12/25 14:12:12;;;;;;;;;;;10.00;99.90;;;;;;5095987;28;20382;-81
2022/12/25 14:14:39;;;;;;;;;;;10.10;99.90;;;;;;5096164;28;19934;-81
2022/12/25 14:17:06;;;;;;;;;;;10.10;99.90;;;;;;5098131;28;20314;-82
2022/12/25 14:19:34;;;;;;;;;;;10.10;99.90;;;;;;5096915;28;19930;-82
2022/12/25 14:22:02;;;;;;;;;;;10.10;99.90;;;;;;5096286;28;19932;-82
2022/12/25 14:24:30;;;;;;;;;;;10.20;99.90;;;;;;5099116;28;19927;-81
2022/12/25 14:26:59;;;;;;;;;;;10.10;99.90;;;;;;5096986;28;20026;-81
2022/12/25 14:29:26;;;;;;;;;;;10.10;99.90;;;;;;5097309;28;19931;-82
2022/12/25 14:31:54;;;;;;;;;;;10.10;99.90;;;;;;5098494;28;20068;-81
2022/12/25 14:34:22;;;;;;;;;;;10.10;99.90;;;;;;5092487;28;20419;-81
2022/12/25 14:36:51;;;;;;;;;;;10.00;99.90;;;;;;5093605;28;19935;-81
2022/12/25 14:39:25;;;;;;;;;;;10.00;99.90;;;;;;5094081;28;19927;-80
2022/12/25 14:41:52;;;;;;;;;;;10.00;99.90;;;;;;5096798;28;19935;-80
2022/12/25 14:44:29;;;;;;;;;;;10.10;99.90;;;;;;5099861;28;19928;-80
2022/12/25 14:47:02;;;;;;;;;;;10.10;99.90;;;;;;5095976;28;20358;-82
2022/12/25 14:49:31;;;;;;;;;;;10.10;99.90;;;;;;5101690;28;20335;-80
2022/12/25 14:51:59;;;;;;;;;;;10.10;99.90;;;;;;5103469;28;20469;-80
2022/12/25 14:54:26;;;;;;;;;;;10.10;99.90;;;;;;5100761;28;20005;-81
2022/12/25 14:56:54;;;;;;;;;;;10.10;99.90;;;;;;5101260;28;19932;-80
2022/12/25 14:59:24;;;;;;;;;;;10.10;99.90;;;;;;5095940;28;19928;-81
2022/12/25 15:01:52;;;;;;;;;;;10.20;99.90;;;;;;5095018;28;20148;-80
2022/12/25 15:04:21;;;;;;;;;;;10.10;99.90;;;;;;5091261;28;19931;-81
2022/12/25 15:06:52;;;;;;;;;;;10.10;99.90;;;;;;5092842;28;19932;-81
2022/12/25 15:09:20;;;;;;;;;;;10.10;99.90;;;;;;5094620;28;19928;-81
2022/12/25 15:11:48;;;;;;;;;;;10.10;99.90;;;;;;5094542;28;19985;-80
2022/12/25 15:14:14;;;;;;;;;;;10.10;99.90;;;;;;5098906;28;19924;-81
2022/12/25 15:16:42;;;;;;;;;;;10.10;99.90;;;;;;5103604;28;19977;-80
2022/12/25 15:19:10;;;;;;;;;;;10.10;99.90;;;;;;5109417;28;19928;-81
2022/12/25 15:21:37;;;;;;;;;;;10.10;99.90;;;;;;5106979;28;19977;-81
2022/12/25 15:24:04;;;;;;;;;;;10.10;99.90;;;;;;5104511;28;19976;-80
2022/12/25 15:26:32;;;;;;;;;;;10.10;99.90;;;;;;5094786;28;20402;-80
2022/12/25 15:28:58;;;;;;;;;;;10.10;99.90;;;;;;5094681;28;19939;-81
2022/12/25 15:31:27;;;;;;;;;;;10.10;99.90;;;;;;5093138;28;19938;-79
2022/12/25 15:33:55;;;;;;;;;;;10.20;99.90;;;;;;5096668;28;20483;-80
2022/12/25 15:36:22;;;;;;;;;;;10.20;99.90;;;;;;5099029;28;19928;-80
2022/12/25 15:38:49;;;;;;;;;;;10.20;99.90;;;;;;5091679;28;19927;-80
2022/12/25 15:43:59;;;;;;;;;;;10.20;99.90;;;;;;5093223;28;19928;-81
2022/12/25 15:46:25;;;;;;;;;;;10.10;99.90;;;;;;5092947;28;19939;-80
2022/12/25 15:48:52;;;;;;;;;;;10.20;99.90;;;;;;5098453;28;20455;-79
2022/12/25 15:51:19;;;;;;;;;;;10.20;99.90;;;;;;5095374;28;19924;-79
2022/12/25 15:53:46;;;;;;;;;;;10.20;99.90;;;;;;5093675;28;19931;-79
2022/12/25 15:56:12;;;;;;;;;;;10.20;99.90;;;;;;5092918;28;19981;-80
2022/12/25 15:58:39;;;;;;;;;;;10.20;99.90;;;;;;5095207;28;19942;-82
2022/12/25 16:01:07;;;;;;;;;;;10.20;99.90;;;;;;5093352;28;19934;-81
2022/12/25 16:03:34;;;;;;;;;;;10.20;99.90;;;;;;5096388;28;19931;-80
2022/12/25 16:06:00;;;;;;;;;;;10.20;99.90;;;;;;5093323;28;19928;-80
2022/12/25 16:08:27;;;;;;;;;;;10.20;99.90;;;;;;5095433;28;19928;-80
2022/12/25 16:10:54;;;;;;;;;;;10.20;99.90;;;;;;5097116;28;19931;-80
2022/12/25 16:13:21;;;;;;;;;;;10.20;99.90;;;;;;5094021;28;20338;-81
2022/12/25 16:15:48;;;;;;;;;;;10.20;99.90;;;;;;5093144;28;19932;-80
2022/12/25 16:18:16;;;;;;;;;;;10.20;99.90;;;;;;5094595;28;20018;-80
2022/12/25 16:20:43;;;;;;;;;;;10.10;99.90;;;;;;5096272;28;20019;-81
2022/12/25 16:23:10;;;;;;;;;;;10.10;99.90;;;;;;5095712;28;19934;-80